sensor_id;sensor_type;location;lat;lon;timestamp;P1;durP1;ratioP1;P2;durP2;ratioP2
16173;SDS011;14031;50.158;8.626;2022-11-15T00:01:14;8.93;;;8.03;;
16173;SDS011;14031;50.158;8.626;2022-11-15T00:03:43;12.30;;;8.00;;
16173;SDS011;14031;50.158;8.626;2022-11-15T00:06:11;8.47;;;7.37;;
16173;SDS011;14031;50.158;8.626;2022-11-15T00:08:38;9.47;;;8.43;;
16173;SDS011;14031;50.158;8.626;2022-11-15T00:11:05;10.87;;;7.93;;
16173;SDS011;14031;50.158;8.626;2022-11-15T00:13:31;12.93;;;7.73;;
16173;SDS011;14031;50.158;8.626;2022-11-15T00:16:00;8.40;;;7.37;;
16173;SDS011;14031;50.158;8.626;2022-11-15T00:18:28;10.70;;;7.73;;
16173;SDS011;14031;50.158;8.626;2022-11-15T00:20:55;9.20;;;7.63;;
16173;SDS011;14031;50.158;8.626;2022-11-15T00:23:28;8.33;;;7.60;;
16173;SDS011;14031;50.158;8.626;2022-11-15T00:25:55;8.67;;;7.77;;
16173;SDS011;14031;50.158;8.626;2022-11-15T00:28:23;9.03;;;8.13;;
16173;SDS011;14031;50.158;8.626;2022-11-15T00:30:50;8.33;;;7.53;;
16173;SDS011;14031;50.158;8.626;2022-11-15T00:33:18;9.70;;;7.73;;
16173;SDS011;14031;50.158;8.626;2022-11-15T00:35:45;8.40;;;7.60;;
16173;SDS011;14031;50.158;8.626;2022-11-15T00:38:12;9.37;;;8.57;;
16173;SDS011;14031;50.158;8.626;2022-11-15T00:40:39;10.10;;;7.67;;
16173;SDS011;14031;50.158;8.626;2022-11-15T00:43:06;8.43;;;7.30;;
16173;SDS011;14031;50.158;8.626;2022-11-15T00:45:33;8.83;;;8.03;;
16173;SDS011;14031;50.158;8.626;2022-11-15T00:48:00;12.40;;;7.70;;
16173;SDS011;14031;50.158;8.626;2022-11-15T00:50:28;8.37;;;7.57;;
16173;SDS011;14031;50.158;8.626;2022-11-15T00:52:54;7.83;;;7.23;;
16173;SDS011;14031;50.158;8.626;2022-11-15T00:55:21;10.97;;;7.57;;
16173;SDS011;14031;50.158;8.626;2022-11-15T00:57:48;8.27;;;7.57;;
16173;SDS011;14031;50.158;8.626;2022-11-15T01:00:15;9.13;;;8.13;;
16173;SDS011;14031;50.158;8.626;2022-11-15T01:02:42;8.43;;;7.63;;
16173;SDS011;14031;50.158;8.626;2022-11-15T01:05:09;8.43;;;7.50;;
16173;SDS011;14031;50.158;8.626;2022-11-15T01:07:37;10.37;;;8.00;;
16173;SDS011;14031;50.158;8.626;2022-11-15T01:10:04;8.87;;;7.97;;
16173;SDS011;14031;50.158;8.626;2022-11-15T01:12:32;8.30;;;7.57;;
16173;SDS011;14031;50.158;8.626;2022-11-15T01:14:58;10.30;;;7.77;;
16173;SDS011;14031;50.158;8.626;2022-11-15T01:17:26;8.27;;;7.47;;
16173;SDS011;14031;50.158;8.626;2022-11-15T01:19:52;8.30;;;7.50;;
16173;SDS011;14031;50.158;8.626;2022-11-15T01:22:19;9.37;;;8.30;;
16173;SDS011;14031;50.158;8.626;2022-11-15T01:24:47;8.60;;;7.80;;
16173;SDS011;14031;50.158;8.626;2022-11-15T01:27:15;9.37;;;8.27;;
16173;SDS011;14031;50.158;8.626;2022-11-15T01:29:42;10.83;;;7.93;;
16173;SDS011;14031;50.158;8.626;2022-11-15T01:32:09;9.07;;;8.17;;
16173;SDS011;14031;50.158;8.626;2022-11-15T01:34:36;8.50;;;7.67;;
16173;SDS011;14031;50.158;8.626;2022-11-15T01:37:02;11.33;;;8.60;;
16173;SDS011;14031;50.158;8.626;2022-11-15T01:39:29;8.63;;;7.83;;
16173;SDS011;14031;50.158;8.626;2022-11-15T01:41:57;8.80;;;8.00;;
16173;SDS011;14031;50.158;8.626;2022-11-15T01:44:40;9.70;;;8.07;;
16173;SDS011;14031;50.158;8.626;2022-11-15T01:47:09;9.97;;;7.80;;
16173;SDS011;14031;50.158;8.626;2022-11-15T01:49:39;8.20;;;7.50;;
16173;SDS011;14031;50.158;8.626;2022-11-15T01:52:12;9.30;;;8.20;;
16173;SDS011;14031;50.158;8.626;2022-11-15T01:54:42;9.37;;;8.47;;
16173;SDS011;14031;50.158;8.626;2022-11-15T01:57:11;9.23;;;8.33;;
16173;SDS011;14031;50.158;8.626;2022-11-15T01:59:40;10.37;;;9.10;;
16173;SDS011;14031;50.158;8.626;2022-11-15T02:02:09;12.27;;;9.30;;
16173;SDS011;14031;50.158;8.626;2022-11-15T02:04:37;10.30;;;7.87;;
16173;SDS011;14031;50.158;8.626;2022-11-15T02:07:07;11.43;;;8.57;;
16173;SDS011;14031;50.158;8.626;2022-11-15T02:09:36;9.60;;;8.67;;
16173;SDS011;14031;50.158;8.626;2022-11-15T02:12:03;9.30;;;8.27;;
16173;SDS011;14031;50.158;8.626;2022-11-15T02:14:34;13.70;;;9.00;;
16173;SDS011;14031;50.158;8.626;2022-11-15T02:17:06;14.33;;;8.43;;
16173;SDS011;14031;50.158;8.626;2022-11-15T02:19:51;10.07;;;8.93;;
16173;SDS011;14031;50.158;8.626;2022-11-15T02:22:36;10.10;;;9.07;;
16173;SDS011;14031;50.158;8.626;2022-11-15T02:25:14;13.30;;;8.80;;
16173;SDS011;14031;50.158;8.626;2022-11-15T02:28:04;10.67;;;8.97;;
16173;SDS011;14031;50.158;8.626;2022-11-15T02:30:44;12.20;;;8.67;;
16173;SDS011;14031;50.158;8.626;2022-11-15T02:33:16;9.93;;;8.17;;
16173;SDS011;14031;50.158;8.626;2022-11-15T02:35:53;10.80;;;8.87;;
16173;SDS011;14031;50.158;8.626;2022-11-15T02:38:30;8.33;;;7.60;;
16173;SDS011;14031;50.158;8.626;2022-11-15T02:41:02;9.17;;;8.27;;
16173;SDS011;14031;50.158;8.626;2022-11-15T02:43:38;8.70;;;7.93;;
16173;SDS011;14031;50.158;8.626;2022-11-15T02:46:27;10.50;;;7.77;;
16173;SDS011;14031;50.158;8.626;2022-11-15T02:49:16;10.13;;;8.13;;
16173;SDS011;14031;50.158;8.626;2022-11-15T02:51:44;9.30;;;8.40;;
16173;SDS011;14031;50.158;8.626;2022-11-15T02:54:14;8.83;;;7.57;;
16173;SDS011;14031;50.158;8.626;2022-11-15T02:56:47;9.77;;;7.23;;
16173;SDS011;14031;50.158;8.626;2022-11-15T02:59:31;8.17;;;7.47;;
16173;SDS011;14031;50.158;8.626;2022-11-15T03:02:23;9.47;;;8.00;;
16173;SDS011;14031;50.158;8.626;2022-11-15T03:05:02;8.60;;;7.70;;
16173;SDS011;14031;50.158;8.626;2022-11-15T03:07:38;8.77;;;7.43;;
16173;SDS011;14031;50.158;8.626;2022-11-15T03:10:12;8.00;;;7.20;;
16173;SDS011;14031;50.158;8.626;2022-11-15T03:12:48;7.67;;;7.07;;
16173;SDS011;14031;50.158;8.626;2022-11-15T03:15:21;8.17;;;7.37;;
16173;SDS011;14031;50.158;8.626;2022-11-15T03:17:57;7.70;;;7.10;;
16173;SDS011;14031;50.158;8.626;2022-11-15T03:20:27;8.90;;;7.50;;
16173;SDS011;14031;50.158;8.626;2022-11-15T03:22:55;10.47;;;7.37;;
16173;SDS011;14031;50.158;8.626;2022-11-15T03:25:27;8.87;;;8.00;;
16173;SDS011;14031;50.158;8.626;2022-11-15T03:27:55;8.03;;;7.03;;
16173;SDS011;14031;50.158;8.626;2022-11-15T03:30:25;8.00;;;7.33;;
16173;SDS011;14031;50.158;8.626;2022-11-15T03:32:54;9.20;;;6.90;;
16173;SDS011;14031;50.158;8.626;2022-11-15T03:35:25;8.20;;;7.47;;
16173;SDS011;14031;50.158;8.626;2022-11-15T03:37:57;7.70;;;7.00;;
16173;SDS011;14031;50.158;8.626;2022-11-15T03:40:29;7.93;;;7.23;;
16173;SDS011;14031;50.158;8.626;2022-11-15T03:43:02;7.60;;;6.90;;
16173;SDS011;14031;50.158;8.626;2022-11-15T03:45:35;8.63;;;7.80;;
16173;SDS011;14031;50.158;8.626;2022-11-15T03:48:09;8.47;;;7.33;;
16173;SDS011;14031;50.158;8.626;2022-11-15T03:50:39;10.07;;;7.10;;
16173;SDS011;14031;50.158;8.626;2022-11-15T03:53:07;7.90;;;7.30;;
16173;SDS011;14031;50.158;8.626;2022-11-15T03:55:34;8.93;;;7.60;;
16173;SDS011;14031;50.158;8.626;2022-11-15T03:58:01;9.37;;;7.10;;
16173;SDS011;14031;50.158;8.626;2022-11-15T04:00:28;9.37;;;7.13;;
16173;SDS011;14031;50.158;8.626;2022-11-15T04:02:55;7.03;;;6.53;;
16173;SDS011;14031;50.158;8.626;2022-11-15T04:05:23;7.50;;;6.73;;
16173;SDS011;14031;50.158;8.626;2022-11-15T04:07:50;7.00;;;6.50;;
16173;SDS011;14031;50.158;8.626;2022-11-15T04:10:17;7.43;;;6.70;;
16173;SDS011;14031;50.158;8.626;2022-11-15T04:12:44;10.07;;;7.50;;
16173;SDS011;14031;50.158;8.626;2022-11-15T04:15:13;7.30;;;6.57;;
16173;SDS011;14031;50.158;8.626;2022-11-15T04:17:42;8.23;;;6.67;;
16173;SDS011;14031;50.158;8.626;2022-11-15T04:20:11;8.93;;;7.07;;
16173;SDS011;14031;50.158;8.626;2022-11-15T04:22:59;8.73;;;6.30;;
16173;SDS011;14031;50.158;8.626;2022-11-15T04:25:44;7.73;;;7.00;;
16173;SDS011;14031;50.158;8.626;2022-11-15T04:28:11;7.80;;;7.20;;
16173;SDS011;14031;50.158;8.626;2022-11-15T04:30:38;8.10;;;6.73;;
16173;SDS011;14031;50.158;8.626;2022-11-15T04:33:07;12.03;;;6.50;;
16173;SDS011;14031;50.158;8.626;2022-11-15T04:35:36;8.37;;;7.60;;
16173;SDS011;14031;50.158;8.626;2022-11-15T04:38:05;7.33;;;6.70;;
16173;SDS011;14031;50.158;8.626;2022-11-15T04:40:33;7.80;;;7.10;;
16173;SDS011;14031;50.158;8.626;2022-11-15T04:42:59;8.00;;;7.20;;
16173;SDS011;14031;50.158;8.626;2022-11-15T04:45:29;7.17;;;6.57;;
16173;SDS011;14031;50.158;8.626;2022-11-15T04:47:56;7.40;;;6.37;;
16173;SDS011;14031;50.158;8.626;2022-11-15T04:50:23;7.67;;;6.97;;
16173;SDS011;14031;50.158;8.626;2022-11-15T04:52:51;8.50;;;6.90;;
16173;SDS011;14031;50.158;8.626;2022-11-15T04:55:20;6.93;;;6.37;;
16173;SDS011;14031;50.158;8.626;2022-11-15T04:57:47;11.70;;;7.23;;
16173;SDS011;14031;50.158;8.626;2022-11-15T05:00:22;7.50;;;6.80;;
16173;SDS011;14031;50.158;8.626;2022-11-15T05:02:49;6.97;;;6.43;;
16173;SDS011;14031;50.158;8.626;2022-11-15T05:05:34;7.27;;;6.67;;
16173;SDS011;14031;50.158;8.626;2022-11-15T05:08:01;9.13;;;7.10;;
16173;SDS011;14031;50.158;8.626;2022-11-15T05:10:29;7.63;;;6.93;;
16173;SDS011;14031;50.158;8.626;2022-11-15T05:12:56;11.97;;;6.97;;
16173;SDS011;14031;50.158;8.626;2022-11-15T05:15:23;6.90;;;6.43;;
16173;SDS011;14031;50.158;8.626;2022-11-15T05:17:50;7.47;;;6.87;;
16173;SDS011;14031;50.158;8.626;2022-11-15T05:20:16;7.67;;;7.03;;
16173;SDS011;14031;50.158;8.626;2022-11-15T05:22:43;7.37;;;6.77;;
16173;SDS011;14031;50.158;8.626;2022-11-15T05:25:10;6.93;;;6.33;;
16173;SDS011;14031;50.158;8.626;2022-11-15T05:27:38;8.63;;;6.57;;
16173;SDS011;14031;50.158;8.626;2022-11-15T05:30:05;7.63;;;6.90;;
16173;SDS011;14031;50.158;8.626;2022-11-15T05:32:33;7.00;;;6.43;;
16173;SDS011;14031;50.158;8.626;2022-11-15T05:34:59;6.97;;;6.47;;
16173;SDS011;14031;50.158;8.626;2022-11-15T05:37:26;7.80;;;7.00;;
16173;SDS011;14031;50.158;8.626;2022-11-15T05:39:55;8.00;;;6.33;;
16173;SDS011;14031;50.158;8.626;2022-11-15T05:42:21;7.30;;;6.70;;
16173;SDS011;14031;50.158;8.626;2022-11-15T05:44:50;7.50;;;6.77;;
16173;SDS011;14031;50.158;8.626;2022-11-15T05:47:17;7.70;;;6.73;;
16173;SDS011;14031;50.158;8.626;2022-11-15T05:49:47;6.97;;;6.37;;
16173;SDS011;14031;50.158;8.626;2022-11-15T05:52:16;7.97;;;7.17;;
16173;SDS011;14031;50.158;8.626;2022-11-15T05:54:46;8.83;;;7.40;;
16173;SDS011;14031;50.158;8.626;2022-11-15T05:57:13;10.60;;;7.33;;
16173;SDS011;14031;50.158;8.626;2022-11-15T05:59:46;7.93;;;6.73;;
16173;SDS011;14031;50.158;8.626;2022-11-15T06:02:14;8.03;;;7.33;;
16173;SDS011;14031;50.158;8.626;2022-11-15T06:04:41;13.43;;;6.50;;
16173;SDS011;14031;50.158;8.626;2022-11-15T06:07:07;6.90;;;6.20;;
16173;SDS011;14031;50.158;8.626;2022-11-15T06:09:34;8.90;;;8.07;;
16173;SDS011;14031;50.158;8.626;2022-11-15T06:12:01;17.73;;;11.30;;
16173;SDS011;14031;50.158;8.626;2022-11-15T06:14:28;13.40;;;10.50;;
16173;SDS011;14031;50.158;8.626;2022-11-15T06:16:54;11.27;;;7.73;;
16173;SDS011;14031;50.158;8.626;2022-11-15T06:19:23;7.07;;;6.57;;
16173;SDS011;14031;50.158;8.626;2022-11-15T06:21:49;7.80;;;7.10;;
16173;SDS011;14031;50.158;8.626;2022-11-15T06:24:16;6.67;;;6.10;;
16173;SDS011;14031;50.158;8.626;2022-11-15T06:26:43;8.77;;;6.90;;
16173;SDS011;14031;50.158;8.626;2022-11-15T06:29:09;8.33;;;7.37;;
16173;SDS011;14031;50.158;8.626;2022-11-15T06:31:36;7.30;;;6.60;;
16173;SDS011;14031;50.158;8.626;2022-11-15T06:34:03;13.67;;;6.93;;
16173;SDS011;14031;50.158;8.626;2022-11-15T06:36:31;7.70;;;7.10;;
16173;SDS011;14031;50.158;8.626;2022-11-15T06:39:00;9.70;;;7.47;;
16173;SDS011;14031;50.158;8.626;2022-11-15T06:41:27;7.17;;;6.63;;
16173;SDS011;14031;50.158;8.626;2022-11-15T06:43:53;8.13;;;7.37;;
16173;SDS011;14031;50.158;8.626;2022-11-15T06:46:20;7.50;;;6.80;;
16173;SDS011;14031;50.158;8.626;2022-11-15T06:48:47;7.57;;;6.97;;
16173;SDS011;14031;50.158;8.626;2022-11-15T06:51:16;7.57;;;6.87;;
16173;SDS011;14031;50.158;8.626;2022-11-15T06:53:44;7.83;;;7.00;;
16173;SDS011;14031;50.158;8.626;2022-11-15T06:56:11;8.07;;;6.77;;
16173;SDS011;14031;50.158;8.626;2022-11-15T06:58:38;7.87;;;7.13;;
16173;SDS011;14031;50.158;8.626;2022-11-15T07:01:06;7.67;;;7.00;;
16173;SDS011;14031;50.158;8.626;2022-11-15T07:03:34;7.60;;;6.90;;
16173;SDS011;14031;50.158;8.626;2022-11-15T07:06:02;7.67;;;6.83;;
16173;SDS011;14031;50.158;8.626;2022-11-15T07:08:29;7.83;;;7.13;;
16173;SDS011;14031;50.158;8.626;2022-11-15T07:10:59;7.43;;;6.70;;
16173;SDS011;14031;50.158;8.626;2022-11-15T07:13:27;7.73;;;6.70;;
16173;SDS011;14031;50.158;8.626;2022-11-15T07:15:54;7.17;;;6.57;;
16173;SDS011;14031;50.158;8.626;2022-11-15T07:18:21;7.23;;;6.60;;
16173;SDS011;14031;50.158;8.626;2022-11-15T07:20:48;7.70;;;6.37;;
16173;SDS011;14031;50.158;8.626;2022-11-15T07:23:14;9.00;;;6.87;;
16173;SDS011;14031;50.158;8.626;2022-11-15T07:25:41;8.03;;;6.27;;
16173;SDS011;14031;50.158;8.626;2022-11-15T07:28:09;9.77;;;6.83;;
16173;SDS011;14031;50.158;8.626;2022-11-15T07:30:36;9.17;;;7.17;;
16173;SDS011;14031;50.158;8.626;2022-11-15T07:33:03;7.93;;;7.13;;
16173;SDS011;14031;50.158;8.626;2022-11-15T07:35:30;8.13;;;7.43;;
16173;SDS011;14031;50.158;8.626;2022-11-15T07:37:57;7.43;;;6.67;;
16173;SDS011;14031;50.158;8.626;2022-11-15T07:40:24;7.50;;;6.83;;
16173;SDS011;14031;50.158;8.626;2022-11-15T07:42:52;6.97;;;6.43;;
16173;SDS011;14031;50.158;8.626;2022-11-15T07:45:20;9.47;;;6.97;;
16173;SDS011;14031;50.158;8.626;2022-11-15T07:47:48;10.83;;;6.77;;
16173;SDS011;14031;50.158;8.626;2022-11-15T07:50:15;7.43;;;6.63;;
16173;SDS011;14031;50.158;8.626;2022-11-15T07:52:42;8.20;;;7.27;;
16173;SDS011;14031;50.158;8.626;2022-11-15T07:55:09;7.87;;;7.03;;
16173;SDS011;14031;50.158;8.626;2022-11-15T07:57:36;8.07;;;7.27;;
16173;SDS011;14031;50.158;8.626;2022-11-15T08:00:04;8.27;;;7.47;;
16173;SDS011;14031;50.158;8.626;2022-11-15T08:02:33;8.73;;;7.90;;
16173;SDS011;14031;50.158;8.626;2022-11-15T08:05:00;12.73;;;8.00;;
16173;SDS011;14031;50.158;8.626;2022-11-15T08:07:28;13.33;;;7.77;;
16173;SDS011;14031;50.158;8.626;2022-11-15T08:09:56;13.13;;;8.60;;
16173;SDS011;14031;50.158;8.626;2022-11-15T08:12:22;13.27;;;7.50;;
16173;SDS011;14031;50.158;8.626;2022-11-15T08:14:49;7.37;;;6.77;;
16173;SDS011;14031;50.158;8.626;2022-11-15T08:17:16;9.20;;;6.90;;
16173;SDS011;14031;50.158;8.626;2022-11-15T08:19:44;11.50;;;6.73;;
16173;SDS011;14031;50.158;8.626;2022-11-15T08:22:11;7.43;;;6.73;;
16173;SDS011;14031;50.158;8.626;2022-11-15T08:24:38;14.27;;;6.80;;
16173;SDS011;14031;50.158;8.626;2022-11-15T08:27:05;7.13;;;6.40;;
16173;SDS011;14031;50.158;8.626;2022-11-15T08:29:40;11.43;;;8.00;;
16173;SDS011;14031;50.158;8.626;2022-11-15T08:32:07;11.03;;;6.87;;
16173;SDS011;14031;50.158;8.626;2022-11-15T08:34:34;8.03;;;7.23;;
16173;SDS011;14031;50.158;8.626;2022-11-15T08:37:02;8.03;;;7.37;;
16173;SDS011;14031;50.158;8.626;2022-11-15T08:39:30;7.57;;;6.87;;
16173;SDS011;14031;50.158;8.626;2022-11-15T08:41:57;9.03;;;6.17;;
16173;SDS011;14031;50.158;8.626;2022-11-15T08:44:24;7.50;;;6.90;;
16173;SDS011;14031;50.158;8.626;2022-11-15T08:46:50;6.57;;;5.67;;
16173;SDS011;14031;50.158;8.626;2022-11-15T08:49:17;10.63;;;6.60;;
16173;SDS011;14031;50.158;8.626;2022-11-15T08:51:44;7.67;;;6.70;;
16173;SDS011;14031;50.158;8.626;2022-11-15T08:54:13;7.60;;;6.83;;
16173;SDS011;14031;50.158;8.626;2022-11-15T08:56:39;11.13;;;7.77;;
16173;SDS011;14031;50.158;8.626;2022-11-15T08:59:06;9.37;;;6.67;;
16173;SDS011;14031;50.158;8.626;2022-11-15T09:01:33;6.73;;;6.13;;
16173;SDS011;14031;50.158;8.626;2022-11-15T09:04:00;6.93;;;6.23;;
16173;SDS011;14031;50.158;8.626;2022-11-15T09:06:27;7.83;;;6.57;;
16173;SDS011;14031;50.158;8.626;2022-11-15T09:08:54;7.47;;;6.80;;
16173;SDS011;14031;50.158;8.626;2022-11-15T09:11:22;9.10;;;6.30;;
16173;SDS011;14031;50.158;8.626;2022-11-15T09:13:51;7.27;;;6.57;;
16173;SDS011;14031;50.158;8.626;2022-11-15T09:16:18;8.00;;;5.83;;
16173;SDS011;14031;50.158;8.626;2022-11-15T09:18:45;9.57;;;6.20;;
16173;SDS011;14031;50.158;8.626;2022-11-15T09:21:12;8.83;;;6.53;;
16173;SDS011;14031;50.158;8.626;2022-11-15T09:23:39;9.67;;;5.90;;
16173;SDS011;14031;50.158;8.626;2022-11-15T09:26:06;7.50;;;5.93;;
16173;SDS011;14031;50.158;8.626;2022-11-15T09:28:34;8.30;;;6.67;;
16173;SDS011;14031;50.158;8.626;2022-11-15T09:31:04;7.00;;;6.30;;
16173;SDS011;14031;50.158;8.626;2022-11-15T09:33:31;8.03;;;6.83;;
16173;SDS011;14031;50.158;8.626;2022-11-15T09:36:01;7.37;;;6.67;;
16173;SDS011;14031;50.158;8.626;2022-11-15T09:38:30;8.73;;;6.90;;
16173;SDS011;14031;50.158;8.626;2022-11-15T09:41:05;10.10;;;6.77;;
16173;SDS011;14031;50.158;8.626;2022-11-15T09:43:57;7.57;;;6.80;;
16173;SDS011;14031;50.158;8.626;2022-11-15T09:46:37;6.97;;;6.37;;
16173;SDS011;14031;50.158;8.626;2022-11-15T09:49:16;11.33;;;7.00;;
16173;SDS011;14031;50.158;8.626;2022-11-15T09:51:44;10.73;;;6.53;;
16173;SDS011;14031;50.158;8.626;2022-11-15T09:54:16;7.37;;;6.73;;
16173;SDS011;14031;50.158;8.626;2022-11-15T09:56:49;7.47;;;6.77;;
16173;SDS011;14031;50.158;8.626;2022-11-15T09:59:26;7.67;;;6.43;;
16173;SDS011;14031;50.158;8.626;2022-11-15T10:02:08;8.50;;;7.30;;
16173;SDS011;14031;50.158;8.626;2022-11-15T10:04:45;8.67;;;6.37;;
16173;SDS011;14031;50.158;8.626;2022-11-15T10:07:13;7.70;;;7.00;;
16173;SDS011;14031;50.158;8.626;2022-11-15T10:09:45;8.83;;;6.97;;
16173;SDS011;14031;50.158;8.626;2022-11-15T10:12:17;18.23;;;11.33;;
16173;SDS011;14031;50.158;8.626;2022-11-15T10:14:46;10.37;;;9.27;;
16173;SDS011;14031;50.158;8.626;2022-11-15T10:17:22;11.50;;;6.80;;
16173;SDS011;14031;50.158;8.626;2022-11-15T10:20:06;7.53;;;6.43;;
16173;SDS011;14031;50.158;8.626;2022-11-15T10:22:40;7.47;;;6.80;;
16173;SDS011;14031;50.158;8.626;2022-11-15T10:25:16;9.37;;;6.93;;
16173;SDS011;14031;50.158;8.626;2022-11-15T10:27:51;6.17;;;5.57;;
16173;SDS011;14031;50.158;8.626;2022-11-15T10:30:22;6.87;;;5.93;;
16173;SDS011;14031;50.158;8.626;2022-11-15T10:32:55;6.30;;;5.80;;
16173;SDS011;14031;50.158;8.626;2022-11-15T10:35:25;7.60;;;5.93;;
16173;SDS011;14031;50.158;8.626;2022-11-15T10:38:01;5.82;;;5.43;;
16173;SDS011;14031;50.158;8.626;2022-11-15T10:40:32;6.57;;;5.87;;
16173;SDS011;14031;50.158;8.626;2022-11-15T10:43:12;7.37;;;6.73;;
16173;SDS011;14031;50.158;8.626;2022-11-15T10:45:43;5.83;;;4.97;;
16173;SDS011;14031;50.158;8.626;2022-11-15T10:48:21;6.22;;;5.63;;
16173;SDS011;14031;50.158;8.626;2022-11-15T10:50:49;6.90;;;6.35;;
16173;SDS011;14031;50.158;8.626;2022-11-15T10:53:19;6.60;;;6.07;;
16173;SDS011;14031;50.158;8.626;2022-11-15T10:55:53;8.20;;;6.22;;
16173;SDS011;14031;50.158;8.626;2022-11-15T10:58:27;5.83;;;5.43;;
16173;SDS011;14031;50.158;8.626;2022-11-15T11:01:15;6.32;;;5.80;;
16173;SDS011;14031;50.158;8.626;2022-11-15T11:03:44;7.38;;;5.82;;
16173;SDS011;14031;50.158;8.626;2022-11-15T11:06:13;6.00;;;5.50;;
16173;SDS011;14031;50.158;8.626;2022-11-15T11:08:49;6.83;;;6.17;;
16173;SDS011;14031;50.158;8.626;2022-11-15T11:11:20;7.53;;;5.72;;
16173;SDS011;14031;50.158;8.626;2022-11-15T11:13:47;6.77;;;6.17;;
16173;SDS011;14031;50.158;8.626;2022-11-15T11:16:21;6.07;;;5.57;;
16173;SDS011;14031;50.158;8.626;2022-11-15T11:19:04;5.60;;;5.20;;
16173;SDS011;14031;50.158;8.626;2022-11-15T11:21:42;8.97;;;5.57;;
16173;SDS011;14031;50.158;8.626;2022-11-15T11:24:17;6.93;;;5.40;;
16173;SDS011;14031;50.158;8.626;2022-11-15T11:26:54;5.85;;;4.70;;
16173;SDS011;14031;50.158;8.626;2022-11-15T11:29:33;5.15;;;4.47;;
16173;SDS011;14031;50.158;8.626;2022-11-15T11:32:17;4.67;;;4.27;;
16173;SDS011;14031;50.158;8.626;2022-11-15T11:34:55;4.57;;;4.13;;
16173;SDS011;14031;50.158;8.626;2022-11-15T11:37:31;4.70;;;4.20;;
16173;SDS011;14031;50.158;8.626;2022-11-15T11:40:07;4.40;;;4.05;;
16173;SDS011;14031;50.158;8.626;2022-11-15T11:42:42;6.37;;;4.33;;
16173;SDS011;14031;50.158;8.626;2022-11-15T11:45:15;5.63;;;4.10;;
16173;SDS011;14031;50.158;8.626;2022-11-15T11:47:53;4.72;;;4.32;;
16173;SDS011;14031;50.158;8.626;2022-11-15T11:50:27;4.50;;;4.10;;
16173;SDS011;14031;50.158;8.626;2022-11-15T11:52:58;5.33;;;4.50;;
16173;SDS011;14031;50.158;8.626;2022-11-15T11:55:31;4.73;;;4.43;;
16173;SDS011;14031;50.158;8.626;2022-11-15T11:58:04;4.78;;;4.30;;
16173;SDS011;14031;50.158;8.626;2022-11-15T12:00:38;4.10;;;3.80;;
16173;SDS011;14031;50.158;8.626;2022-11-15T12:03:09;4.60;;;4.23;;
16173;SDS011;14031;50.158;8.626;2022-11-15T12:05:40;6.75;;;4.03;;
16173;SDS011;14031;50.158;8.626;2022-11-15T12:08:15;4.80;;;4.33;;
16173;SDS011;14031;50.158;8.626;2022-11-15T12:10:54;4.53;;;4.10;;
16173;SDS011;14031;50.158;8.626;2022-11-15T12:13:26;4.23;;;3.77;;
16173;SDS011;14031;50.158;8.626;2022-11-15T12:15:59;3.80;;;3.60;;
16173;SDS011;14031;50.158;8.626;2022-11-15T12:18:33;4.97;;;3.20;;
16173;SDS011;14031;50.158;8.626;2022-11-15T12:21:02;3.70;;;3.50;;
16173;SDS011;14031;50.158;8.626;2022-11-15T12:23:37;4.57;;;3.67;;
16173;SDS011;14031;50.158;8.626;2022-11-15T12:26:07;3.85;;;3.55;;
16173;SDS011;14031;50.158;8.626;2022-11-15T12:28:37;3.77;;;3.40;;
16173;SDS011;14031;50.158;8.626;2022-11-15T12:31:10;3.63;;;3.33;;
16173;SDS011;14031;50.158;8.626;2022-11-15T12:33:43;3.45;;;3.15;;
16173;SDS011;14031;50.158;8.626;2022-11-15T12:36:12;3.45;;;3.25;;
16173;SDS011;14031;50.158;8.626;2022-11-15T12:39:00;4.28;;;3.85;;
16173;SDS011;14031;50.158;8.626;2022-11-15T12:41:30;5.68;;;5.18;;
16173;SDS011;14031;50.158;8.626;2022-11-15T12:43:57;3.93;;;3.73;;
16173;SDS011;14031;50.158;8.626;2022-11-15T12:49:44;3.67;;;3.37;;
16173;SDS011;14031;50.158;8.626;2022-11-15T12:52:12;4.30;;;3.43;;
16173;SDS011;14031;50.158;8.626;2022-11-15T12:54:50;3.37;;;3.13;;
16173;SDS011;14031;50.158;8.626;2022-11-15T12:57:32;4.87;;;3.60;;
16173;SDS011;14031;50.158;8.626;2022-11-15T13:00:02;3.60;;;3.30;;
16173;SDS011;14031;50.158;8.626;2022-11-15T13:02:46;3.70;;;3.30;;
16173;SDS011;14031;50.158;8.626;2022-11-15T13:08:35;4.20;;;3.80;;
16173;SDS011;14031;50.158;8.626;2022-11-15T13:14:45;4.47;;;3.70;;
16173;SDS011;14031;50.158;8.626;2022-11-15T13:17:25;3.97;;;3.67;;
16173;SDS011;14031;50.158;8.626;2022-11-15T13:19:59;3.80;;;3.50;;
16173;SDS011;14031;50.158;8.626;2022-11-15T13:22:39;3.70;;;3.50;;
16173;SDS011;14031;50.158;8.626;2022-11-15T13:28:20;4.43;;;4.00;;
16173;SDS011;14031;50.158;8.626;2022-11-15T13:30:53;4.87;;;3.90;;
16173;SDS011;14031;50.158;8.626;2022-11-15T13:33:22;4.67;;;3.60;;
16173;SDS011;14031;50.158;8.626;2022-11-15T13:35:51;4.73;;;4.10;;
16173;SDS011;14031;50.158;8.626;2022-11-15T13:38:27;4.20;;;3.90;;
16173;SDS011;14031;50.158;8.626;2022-11-15T13:40:55;4.20;;;3.90;;
16173;SDS011;14031;50.158;8.626;2022-11-15T13:43:27;4.03;;;3.70;;
16173;SDS011;14031;50.158;8.626;2022-11-15T13:46:07;5.30;;;4.00;;
16173;SDS011;14031;50.158;8.626;2022-11-15T13:48:38;4.23;;;3.93;;
16173;SDS011;14031;50.158;8.626;2022-11-15T13:51:06;3.78;;;3.47;;
16173;SDS011;14031;50.158;8.626;2022-11-15T13:53:42;4.10;;;3.75;;
16173;SDS011;14031;50.158;8.626;2022-11-15T13:58:40;5.13;;;3.40;;
16173;SDS011;14031;50.158;8.626;2022-11-15T14:01:13;4.10;;;3.90;;
16173;SDS011;14031;50.158;8.626;2022-11-15T14:03:49;4.97;;;4.47;;
16173;SDS011;14031;50.158;8.626;2022-11-15T14:06:20;4.43;;;4.00;;
16173;SDS011;14031;50.158;8.626;2022-11-15T14:09:03;4.67;;;4.23;;
16173;SDS011;14031;50.158;8.626;2022-11-15T14:11:49;4.00;;;3.70;;
16173;SDS011;14031;50.158;8.626;2022-11-15T14:14:16;4.15;;;3.85;;
16173;SDS011;14031;50.158;8.626;2022-11-15T14:16:47;8.13;;;5.40;;
16173;SDS011;14031;50.158;8.626;2022-11-15T14:19:35;5.80;;;3.80;;
16173;SDS011;14031;50.158;8.626;2022-11-15T14:22:07;3.73;;;3.53;;
16173;SDS011;14031;50.158;8.626;2022-11-15T14:24:43;6.33;;;3.80;;
16173;SDS011;14031;50.158;8.626;2022-11-15T14:27:18;5.03;;;3.70;;
16173;SDS011;14031;50.158;8.626;2022-11-15T14:29:47;3.90;;;3.50;;
16173;SDS011;14031;50.158;8.626;2022-11-15T14:32:15;3.77;;;3.47;;
16173;SDS011;14031;50.158;8.626;2022-11-15T14:34:43;3.80;;;3.13;;
16173;SDS011;14031;50.158;8.626;2022-11-15T14:37:16;4.50;;;3.97;;
16173;SDS011;14031;50.158;8.626;2022-11-15T14:39:48;5.10;;;4.70;;
16173;SDS011;14031;50.158;8.626;2022-11-15T14:42:16;15.27;;;10.93;;
16173;SDS011;14031;50.158;8.626;2022-11-15T14:44:43;6.77;;;6.10;;
16173;SDS011;14031;50.158;8.626;2022-11-15T14:47:10;3.60;;;3.30;;
16173;SDS011;14031;50.158;8.626;2022-11-15T14:49:37;4.17;;;2.90;;
16173;SDS011;14031;50.158;8.626;2022-11-15T14:52:07;2.80;;;2.60;;
16173;SDS011;14031;50.158;8.626;2022-11-15T14:54:43;2.90;;;2.60;;
16173;SDS011;14031;50.158;8.626;2022-11-15T14:57:11;3.57;;;2.20;;
16173;SDS011;14031;50.158;8.626;2022-11-15T14:59:38;2.60;;;2.50;;
16173;SDS011;14031;50.158;8.626;2022-11-15T15:02:08;2.27;;;2.13;;
16173;SDS011;14031;50.158;8.626;2022-11-15T15:04:40;2.60;;;2.47;;
16173;SDS011;14031;50.158;8.626;2022-11-15T15:07:07;3.33;;;3.13;;
16173;SDS011;14031;50.158;8.626;2022-11-15T15:09:34;3.40;;;2.63;;
16173;SDS011;14031;50.158;8.626;2022-11-15T15:12:01;2.77;;;2.63;;
16173;SDS011;14031;50.158;8.626;2022-11-15T15:14:29;2.60;;;2.50;;
16173;SDS011;14031;50.158;8.626;2022-11-15T15:16:56;3.00;;;2.67;;
16173;SDS011;14031;50.158;8.626;2022-11-15T15:19:23;3.80;;;3.00;;
16173;SDS011;14031;50.158;8.626;2022-11-15T15:21:50;3.47;;;3.27;;